Time,TemperatureF,DewpointF,PressureIn,WindDirection,WindDirectionDegrees,WindSpeedMPH,WindSpeedGustMPH,Humidity,HourlyPrecipIn,Conditions,Clouds,dailyrainin,SolarRadiationWatts/m^2,SoftwareType,DateUTC
2013-02-23 00:00:00,17.2,5.3,30.16,SE,135,1.0,4.0,59,0.00,,,-99.99,0,WeatherLink 5.7,2013-02-23 07:00:00,
2013-02-23 00:10:00,17.5,6.0,30.16,SE,135,0.0,3.0,60,0.00,,,-99.99,0,WeatherLink 5.7,2013-02-23 07:10:00,
2013-02-23 00:15:00,17.4,5.5,30.16,SE,135,1.0,4.0,59,0.00,,,-99.99,0,WeatherLink 5.7,2013-02-23 07:15:00,
2013-02-23 00:20:00,17.4,5.9,30.14,SE,135,0.0,2.0,60,0.00,,,-99.99,0,WeatherLink 5.7,2013-02-23 07:20:00,
2013-02-23 00:30:00,17.4,6.2,30.14,North,-999,0.0,0.0,61,0.00,,,-99.99,0,WeatherLink 5.7,2013-02-23 07:30:00,
2013-02-23 00:35:00,17.5,6.3,30.14,SE,135,0.0,2.0,61,0.00,,,-99.99,0,WeatherLink 5.7,2013-02-23 07:35:00,
2013-02-23 00:45:00,17.4,6.2,30.14,ESE,112,1.0,4.0,61,0.00,,,-99.99,0,WeatherLink 5.7,2013-02-23 07:45:00,
2013-02-23 00:50:00,17.4,5.9,30.14,East,90,2.0,5.0,60,0.00,,,-99.99,0,WeatherLink 5.7,2013-02-23 07:50:00,
2013-02-23 01:00:00,17.5,6.3,30.14,ESE,112,0.0,3.0,61,0.00,,,-99.99,0,WeatherLink 5.7,2013-02-23 08:00:00,
2013-02-23 01:10:00,17.4,6.2,30.13,ESE,112,1.0,2.0,61,0.00,,,-99.99,0,WeatherLink 5.7,2013-02-23 08:10:00,
2013-02-23 01:15:00,17.2,6.4,30.13,ESE,112,1.0,2.0,62,0.00,,,-99.99,0,WeatherLink 5.7,2013-02-23 08:15:00,
2013-02-23 01:20:00,17.2,6.4,30.14,ESE,112,0.0,2.0,62,0.00,,,-99.99,0,WeatherLink 5.7,2013-02-23 08:20:00,
2013-02-23 01:25:00,17.2,6.4,30.14,ESE,112,0.0,1.0,62,0.00,,,-99.99,0,WeatherLink 5.7,2013-02-23 08:25:00,
2013-02-23 01:35:00,16.9,6.1,30.14,ESE,112,0.0,2.0,62,0.00,,,-99.99,0,WeatherLink 5.7,2013-02-23 08:35:00,
2013-02-23 01:40:00,16.6,5.8,30.14,ESE,112,0.0,1.0,62,0.00,,,-99.99,0,WeatherLink 5.7,2013-02-23 08:40:00,
2013-02-23 01:45:00,16.4,5.6,30.14,ESE,112,0.0,1.0,62,0.00,,,-99.99,0,WeatherLink 5.7,2013-02-23 08:45:00,
2013-02-23 01:50:00,16.4,5.6,30.14,ESE,112,1.0,2.0,62,0.00,,,-99.99,0,WeatherLink 5.7,2013-02-23 08:50:00,
2013-02-23 02:00:00,15.8,5.4,30.14,ESE,112,0.0,2.0,63,0.00,,,-99.99,0,WeatherLink 5.7,2013-02-23 09:00:00,
2013-02-23 02:10:00,15.8,5.4,30.15,ESE,112,2.0,4.0,63,0.00,,,-99.99,0,WeatherLink 5.7,2013-02-23 09:10:00,
2013-02-23 02:15:00,15.6,5.2,30.15,SSE,157,0.0,2.0,63,0.00,,,-99.99,0,WeatherLink 5.7,2013-02-23 09:15:00,
2013-02-23 02:20:00,15.4,5.0,30.14,SE,135,1.0,4.0,63,0.00,,,-99.99,0,WeatherLink 5.7,2013-02-23 09:20:00,
2013-02-23 02:30:00,15.3,4.6,30.14,SSE,157,1.0,3.0,62,0.00,,,-99.99,0,WeatherLink 5.7,2013-02-23 09:30:00,
2013-02-23 02:35:00,15.1,4.8,30.14,East,90,2.0,4.0,63,0.00,,,-99.99,0,WeatherLink 5.7,2013-02-23 09:35:00,
2013-02-23 02:45:00,14.8,4.8,30.14,ESE,112,1.0,3.0,64,0.00,,,-99.99,0,WeatherLink 5.7,2013-02-23 09:45:00,
2013-02-23 02:50:00,14.6,4.6,30.14,SE,135,1.0,3.0,64,0.00,,,-99.99,0,WeatherLink 5.7,2013-02-23 09:50:00,
2013-02-23 02:55:00,14.5,4.5,30.14,SE,135,0.0,2.0,64,0.00,,,-99.99,0,WeatherLink 5.7,2013-02-23 09:55:00,
2013-02-23 03:00:00,14.1,4.5,30.14,SE,135,1.0,3.0,65,0.00,,,-99.99,0,WeatherLink 5.7,2013-02-23 10:00:00,
2013-02-23 03:10:00,14.0,4.4,30.13,SSE,157,1.0,3.0,65,0.00,,,-99.99,0,WeatherLink 5.7,2013-02-23 10:10:00,
2013-02-23 03:15:00,13.8,4.5,30.13,SSE,157,1.0,3.0,66,0.00,,,-99.99,0,WeatherLink 5.7,2013-02-23 10:15:00,
2013-02-23 03:25:00,13.7,4.8,30.13,SSE,157,0.0,2.0,67,0.00,,,-99.99,0,WeatherLink 5.7,2013-02-23 10:25:00,
2013-02-23 03:30:00,13.5,4.6,30.13,SSE,157,0.0,3.0,67,0.00,,,-99.99,0,WeatherLink 5.7,2013-02-23 10:30:00,
2013-02-23 03:35:00,13.3,4.7,30.14,East,90,0.0,2.0,68,0.00,,,-99.99,0,WeatherLink 5.7,2013-02-23 10:35:00,
2013-02-23 03:40:00,13.2,4.6,30.14,East,90,0.0,1.0,68,0.00,,,-99.99,0,WeatherLink 5.7,2013-02-23 10:40:00,
2013-02-23 03:50:00,13.0,4.7,30.13,East,90,1.0,2.0,69,0.00,,,-99.99,0,WeatherLink 5.7,2013-02-23 10:50:00,
2013-02-23 03:55:00,12.8,4.2,30.13,East,90,2.0,3.0,68,0.00,,,-99.99,0,WeatherLink 5.7,2013-02-23 10:55:00,
2013-02-23 04:00:00,12.5,3.9,30.13,East,90,2.0,4.0,68,0.00,,,-99.99,0,WeatherLink 5.7,2013-02-23 11:00:00,
2013-02-23 04:10:00,12.3,3.4,30.13,SE,135,1.0,3.0,67,0.00,,,-99.99,0,WeatherLink 5.7,2013-02-23 11:10:00,
2013-02-23 04:15:00,12.3,3.4,30.13,SE,135,1.0,2.0,67,0.00,,,-99.99,0,WeatherLink 5.7,2013-02-23 11:15:00,
2013-02-23 04:20:00,12.1,3.2,30.17,SE,135,2.0,4.0,67,0.00,,,-99.99,0,WeatherLink 5.7,2013-02-23 11:20:00,
2013-02-23 04:30:00,12.0,3.1,30.17,SE,135,0.0,2.0,67,0.00,,,-99.99,0,WeatherLink 5.7,2013-02-23 11:30:00,
2013-02-23 04:35:00,12.0,3.1,30.16,SE,135,0.0,2.0,67,0.00,,,-99.99,0,WeatherLink 5.7,2013-02-23 11:35:00,
2013-02-23 04:40:00,12.0,3.1,30.16,SE,135,0.0,3.0,67,0.00,,,-99.99,0,WeatherLink 5.7,2013-02-23 11:40:00,
2013-02-23 04:50:00,11.8,2.9,30.15,SE,135,1.0,3.0,67,0.00,,,-99.99,0,WeatherLink 5.7,2013-02-23 11:50:00,
2013-02-23 04:55:00,11.6,2.8,30.15,SE,135,1.0,3.0,67,0.00,,,-99.99,0,WeatherLink 5.7,2013-02-23 11:55:00,
2013-02-23 05:00:00,11.4,2.6,30.15,SE,135,0.0,3.0,67,0.00,,,-99.99,0,WeatherLink 5.7,2013-02-23 12:00:00,
2013-02-23 05:05:00,11.3,2.5,30.15,SE,135,0.0,3.0,67,0.00,,,-99.99,0,WeatherLink 5.7,2013-02-23 12:05:00,
2013-02-23 05:15:00,11.3,2.8,30.15,SE,135,1.0,3.0,68,0.00,,,-99.99,0,WeatherLink 5.7,2013-02-23 12:15:00,
2013-02-23 05:20:00,11.3,2.8,30.17,SE,135,1.0,3.0,68,0.00,,,-99.99,0,WeatherLink 5.7,2013-02-23 12:20:00,
2013-02-23 05:30:00,10.9,2.7,30.17,ESE,112,1.0,3.0,69,0.00,,,-99.99,0,WeatherLink 5.7,2013-02-23 12:30:00,
2013-02-23 05:35:00,10.8,2.9,30.17,ESE,112,0.0,2.0,70,0.00,,,-99.99,0,WeatherLink 5.7,2013-02-23 12:35:00,
2013-02-23 05:40:00,10.6,2.7,30.17,ESE,112,2.0,3.0,70,0.00,,,-99.99,0,WeatherLink 5.7,2013-02-23 12:40:00,
2013-02-23 05:50:00,10.4,2.5,30.17,ESE,112,0.0,2.0,70,0.00,,,-99.99,0,WeatherLink 5.7,2013-02-23 12:50:00,
2013-02-23 05:55:00,10.4,2.5,30.17,ESE,112,0.0,3.0,70,0.00,,,-99.99,0,WeatherLink 5.7,2013-02-23 12:55:00,
2013-02-23 06:00:00,10.2,2.4,30.17,ESE,112,1.0,4.0,70,0.00,,,-99.99,0,WeatherLink 5.7,2013-02-23 13:00:00,
2013-02-23 06:10:00,10.1,2.6,30.17,ESE,112,1.0,3.0,71,0.00,,,-99.99,0,WeatherLink 5.7,2013-02-23 13:10:00,
2013-02-23 06:15:00,10.1,2.6,30.17,East,90,2.0,4.0,71,0.00,,,-99.99,0,WeatherLink 5.7,2013-02-23 13:15:00,
2013-02-23 06:25:00,9.9,2.4,30.20,SE,135,1.0,2.0,71,0.00,,,-99.99,0,WeatherLink 5.7,2013-02-23 13:25:00,
2013-02-23 06:35:00,9.9,2.7,30.20,ESE,112,2.0,4.0,72,0.00,,,-99.99,0,WeatherLink 5.7,2013-02-23 13:35:00,
2013-02-23 06:45:00,10.2,3.0,30.20,East,90,1.0,5.0,72,0.00,,,-99.99,0,WeatherLink 5.7,2013-02-23 13:45:00,
2013-02-23 06:50:00,10.4,3.2,30.20,East,90,0.0,1.0,72,0.00,,,-99.99,4,WeatherLink 5.7,2013-02-23 13:50:00,
2013-02-23 07:00:00,10.4,3.2,30.20,East,90,2.0,3.0,72,0.00,,,-99.99,4,WeatherLink 5.7,2013-02-23 14:00:00,
2013-02-23 07:10:00,10.4,2.9,30.19,East,90,2.0,4.0,71,0.00,,,-99.99,12,WeatherLink 5.7,2013-02-23 14:10:00,
2013-02-23 07:20:00,10.8,3.2,30.21,ESE,112,3.0,5.0,71,0.00,,,-99.99,30,WeatherLink 5.7,2013-02-23 14:20:00,
2013-02-23 07:25:00,10.9,3.3,30.21,ENE,67,2.0,4.0,71,0.00,,,-99.99,36,WeatherLink 5.7,2013-02-23 14:25:00,
2013-02-23 07:35:00,11.1,3.2,30.21,SE,135,3.0,7.0,70,0.00,,,-99.99,61,WeatherLink 5.7,2013-02-23 14:35:00,
2013-02-23 07:40:00,11.3,3.4,30.21,SE,135,2.0,6.0,70,0.00,,,-99.99,61,WeatherLink 5.7,2013-02-23 14:40:00,
2013-02-23 07:50:00,11.8,3.9,30.19,ESE,112,2.0,3.0,70,0.00,,,-99.99,53,WeatherLink 5.7,2013-02-23 14:50:00,
2013-02-23 07:55:00,11.8,3.6,30.19,ESE,112,3.0,5.0,69,0.00,,,-99.99,64,WeatherLink 5.7,2013-02-23 14:55:00,
2013-02-23 08:00:00,11.8,3.6,30.19,East,90,4.0,7.0,69,0.00,,,-99.99,87,WeatherLink 5.7,2013-02-23 15:00:00,
2013-02-23 08:10:00,12.5,3.9,30.19,ESE,112,2.0,4.0,68,0.00,,,-99.99,89,WeatherLink 5.7,2013-02-23 15:10:00,
2013-02-23 08:15:00,13.0,4.4,30.19,SE,135,2.0,5.0,68,0.00,,,-99.99,116,WeatherLink 5.7,2013-02-23 15:15:00,
2013-02-23 08:25:00,13.5,4.6,30.20,East,90,3.0,4.0,67,0.00,,,-99.99,113,WeatherLink 5.7,2013-02-23 15:25:00,
2013-02-23 08:35:00,14.3,5.0,30.19,East,90,2.0,5.0,66,0.00,,,-99.99,171,WeatherLink 5.7,2013-02-23 15:35:00,
2013-02-23 08:40:00,14.5,4.9,30.19,East,90,2.0,5.0,65,0.00,,,-99.99,183,WeatherLink 5.7,2013-02-23 15:40:00,
2013-02-23 08:50:00,14.9,4.6,30.18,ESE,112,3.0,6.0,63,0.00,,,-99.99,160,WeatherLink 5.7,2013-02-23 15:50:00,
2013-02-23 08:55:00,15.3,4.6,30.18,ESE,112,2.0,4.0,62,0.00,,,-99.99,170,WeatherLink 5.7,2013-02-23 15:55:00,
2013-02-23 09:00:00,15.6,4.9,30.18,East,90,2.0,4.0,62,0.00,,,-99.99,178,WeatherLink 5.7,2013-02-23 16:00:00,
2013-02-23 09:10:00,16.4,5.3,30.16,East,90,0.0,2.0,61,0.00,,,-99.99,138,WeatherLink 5.7,2013-02-23 16:10:00,
2013-02-23 09:20:00,17.0,5.5,30.16,SE,135,1.0,4.0,60,0.00,,,-99.99,217,WeatherLink 5.7,2013-02-23 16:20:00,
2013-02-23 09:25:00,17.8,5.5,30.16,East,90,2.0,3.0,58,0.00,,,-99.99,297,WeatherLink 5.7,2013-02-23 16:25:00,
2013-02-23 09:35:00,18.3,4.8,30.13,East,90,2.0,5.0,55,0.00,,,-99.99,248,WeatherLink 5.7,2013-02-23 16:35:00,
2013-02-23 09:40:00,18.3,4.4,30.13,ESE,112,2.0,4.0,54,0.00,,,-99.99,246,WeatherLink 5.7,2013-02-23 16:40:00,
2013-02-23 09:50:00,18.9,5.0,30.12,SE,135,2.0,5.0,54,0.00,,,-99.99,201,WeatherLink 5.7,2013-02-23 16:50:00,
2013-02-23 09:55:00,19.1,4.8,30.12,East,90,2.0,4.0,53,0.00,,,-99.99,231,WeatherLink 5.7,2013-02-23 16:55:00,
2013-02-23 10:00:00,19.4,4.6,30.12,SE,135,1.0,3.0,52,0.00,,,-99.99,244,WeatherLink 5.7,2013-02-23 17:00:00,
2013-02-23 10:10:00,19.9,5.1,30.10,East,90,2.0,3.0,52,0.00,,,-99.99,317,WeatherLink 5.7,2013-02-23 17:10:00,
2013-02-23 10:15:00,20.3,5.0,30.10,East,90,0.0,2.0,51,0.00,,,-99.99,316,WeatherLink 5.7,2013-02-23 17:15:00,
2013-02-23 10:20:00,20.8,5.9,30.10,East,90,0.0,2.0,52,0.00,,,-99.99,286,WeatherLink 5.7,2013-02-23 17:20:00,
2013-02-23 10:30:00,21.5,6.1,30.10,East,90,0.0,3.0,51,0.00,,,-99.99,296,WeatherLink 5.7,2013-02-23 17:30:00,
2013-02-23 10:35:00,21.9,6.1,30.08,East,90,0.0,3.0,50,0.00,,,-99.99,319,WeatherLink 5.7,2013-02-23 17:35:00,
2013-02-23 10:45:00,22.2,6.4,30.08,East,90,1.0,2.0,50,0.00,,,-99.99,306,WeatherLink 5.7,2013-02-23 17:45:00,
2013-02-23 10:50:00,22.6,7.2,30.07,East,90,0.0,2.0,51,0.00,,,-99.99,273,WeatherLink 5.7,2013-02-23 17:50:00,
2013-02-23 11:00:00,23.3,7.8,30.07,East,90,1.0,3.0,51,0.00,,,-99.99,241,WeatherLink 5.7,2013-02-23 18:00:00,
2013-02-23 11:10:00,23.6,7.7,30.04,East,90,0.0,2.0,50,0.00,,,-99.99,214,WeatherLink 5.7,2013-02-23 18:10:00,
2013-02-23 11:20:00,24.1,8.6,30.04,East,90,0.0,3.0,51,0.00,,,-99.99,279,WeatherLink 5.7,2013-02-23 18:20:00,
2013-02-23 11:25:00,24.2,8.2,30.04,East,90,0.0,3.0,50,0.00,,,-99.99,278,WeatherLink 5.7,2013-02-23 18:25:00,
2013-02-23 11:35:00,25.0,9.4,30.01,North,-999,0.0,0.0,51,0.00,,,-99.99,256,WeatherLink 5.7,2013-02-23 18:35:00,
2013-02-23 11:40:00,25.3,9.2,30.01,North,-999,0.0,0.0,50,0.00,,,-99.99,170,WeatherLink 5.7,2013-02-23 18:40:00,
2013-02-23 11:45:00,25.4,9.8,30.01,North,-999,0.0,0.0,51,0.00,,,-99.99,207,WeatherLink 5.7,2013-02-23 18:45:00,
2013-02-23 11:55:00,26.3,11.0,30.00,East,90,0.0,1.0,52,0.00,,,-99.99,349,WeatherLink 5.7,2013-02-23 18:55:00,
2013-02-23 12:00:00,26.6,10.4,30.00,East,90,0.0,2.0,50,0.00,,,-99.99,292,WeatherLink 5.7,2013-02-23 19:00:00,
2013-02-23 12:10:00,26.7,11.0,29.96,NNW,337,0.0,3.0,51,0.00,,,-99.99,189,WeatherLink 5.7,2013-02-23 19:10:00,
2013-02-23 12:15:00,26.7,11.4,29.96,NNW,337,1.0,3.0,52,0.00,,,-99.99,198,WeatherLink 5.7,2013-02-23 19:15:00,
2013-02-23 12:20:00,26.9,12.0,29.96,NNW,337,1.0,4.0,53,0.00,,,-99.99,249,WeatherLink 5.7,2013-02-23 19:20:00,
2013-02-23 12:30:00,27.2,13.1,29.96,NNW,337,1.0,5.0,55,0.00,,,-99.99,299,WeatherLink 5.7,2013-02-23 19:30:00,
2013-02-23 12:35:00,27.2,13.1,29.94,NW,315,1.0,4.0,55,0.00,,,-99.99,287,WeatherLink 5.7,2013-02-23 19:35:00,
2013-02-23 12:40:00,27.2,14.0,29.94,NNW,337,1.0,4.0,57,0.00,,,-99.99,325,WeatherLink 5.7,2013-02-23 19:40:00,
2013-02-23 12:50:00,27.3,15.2,29.92,NW,315,3.0,6.0,60,0.00,,,-99.99,416,WeatherLink 5.7,2013-02-23 19:50:00,
2013-02-23 12:55:00,27.5,16.2,29.92,NW,315,3.0,7.0,62,0.00,,,-99.99,357,WeatherLink 5.7,2013-02-23 19:55:00,
2013-02-23 13:00:00,27.6,15.9,29.92,NW,315,2.0,4.0,61,0.00,,,-99.99,383,WeatherLink 5.7,2013-02-23 20:00:00,
2013-02-23 13:10:00,27.9,16.6,29.89,NNW,337,2.0,4.0,62,0.00,,,-99.99,439,WeatherLink 5.7,2013-02-23 20:10:00,
2013-02-23 13:20:00,28.2,15.7,29.89,NW,315,2.0,5.0,59,0.00,,,-99.99,399,WeatherLink 5.7,2013-02-23 20:20:00,
2013-02-23 13:30:00,29.2,17.0,29.89,NW,315,1.0,5.0,60,0.00,,,-99.99,564,WeatherLink 5.7,2013-02-23 20:30:00,
2013-02-23 13:35:00,30.4,17.0,29.85,NW,315,1.0,4.0,57,0.00,,,-99.99,686,WeatherLink 5.7,2013-02-23 20:35:00,
2013-02-23 13:45:00,32.2,17.0,29.85,NW,315,1.0,4.0,53,0.00,,,-99.99,1009,WeatherLink 5.7,2013-02-23 20:45:00,
2013-02-23 13:50:00,32.1,16.9,29.82,NW,315,2.0,6.0,53,0.00,,,-99.99,563,WeatherLink 5.7,2013-02-23 20:50:00,
2013-02-23 13:55:00,31.8,16.6,29.82,NW,315,1.0,4.0,53,0.00,,,-99.99,343,WeatherLink 5.7,2013-02-23 20:55:00,
2013-02-23 14:00:00,31.3,17.0,29.82,NW,315,1.0,5.0,55,0.00,,,-99.99,348,WeatherLink 5.7,2013-02-23 21:00:00,
2013-02-23 14:10:00,32.1,17.7,29.82,NW,315,2.0,6.0,55,0.00,,,-99.99,686,WeatherLink 5.7,2013-02-23 21:10:00,
2013-02-23 14:15:00,32.4,17.6,29.82,NW,315,3.0,6.0,54,0.00,,,-99.99,824,WeatherLink 5.7,2013-02-23 21:15:00,
2013-02-23 14:20:00,31.8,17.5,29.81,NW,315,2.0,6.0,55,0.00,,,-99.99,501,WeatherLink 5.7,2013-02-23 21:20:00,
2013-02-23 14:30:00,32.9,17.6,29.81,WNW,292,1.0,3.0,53,0.00,,,-99.99,605,WeatherLink 5.7,2013-02-23 21:30:00,
2013-02-23 14:35:00,33.7,17.5,29.78,West,270,1.0,5.0,51,0.00,,,-99.99,660,WeatherLink 5.7,2013-02-23 21:35:00,
2013-02-23 14:45:00,34.1,17.4,29.78,NW,315,1.0,4.0,50,0.00,,,-99.99,608,WeatherLink 5.7,2013-02-23 21:45:00,
2013-02-23 14:55:00,35.3,17.1,29.76,NNW,337,0.0,3.0,47,0.00,,,-99.99,579,WeatherLink 5.7,2013-02-23 21:55:00,
2013-02-23 15:00:00,34.9,17.2,29.76,NE,45,0.0,1.0,48,0.00,,,-99.99,568,WeatherLink 5.7,2013-02-23 22:00:00,
2013-02-23 15:10:00,35.9,18.1,29.74,NE,45,0.0,3.0,48,0.00,,,-99.99,542,WeatherLink 5.7,2013-02-23 22:10:00,
2013-02-23 15:20:00,36.0,16.7,29.75,NNW,337,0.0,3.0,45,0.00,,,-99.99,213,WeatherLink 5.7,2013-02-23 22:20:00,
2013-02-23 15:25:00,35.9,16.6,29.75,NNW,337,0.0,1.0,45,0.00,,,-99.99,111,WeatherLink 5.7,2013-02-23 22:25:00,
2013-02-23 15:30:00,35.5,17.2,29.75,NNW,337,0.0,3.0,47,0.00,,,-99.99,94,WeatherLink 5.7,2013-02-23 22:30:00,
2013-02-23 15:40:00,35.2,17.0,29.74,NNW,337,0.0,2.0,47,0.00,,,-99.99,155,WeatherLink 5.7,2013-02-23 22:40:00,
2013-02-23 15:45:00,35.2,17.4,29.74,NW,315,2.0,6.0,48,0.00,,,-99.99,125,WeatherLink 5.7,2013-02-23 22:45:00,
2013-02-23 15:55:00,34.4,17.7,29.75,NNW,337,3.0,10.0,50,0.00,,,-99.99,113,WeatherLink 5.7,2013-02-23 22:55:00,
2013-02-23 16:00:00,34.3,18.5,29.75,NNW,337,3.0,9.0,52,0.00,,,-99.99,93,WeatherLink 5.7,2013-02-23 23:00:00,
2013-02-23 16:10:00,33.7,19.7,29.77,WNW,292,6.0,18.0,56,0.00,,,-99.99,61,WeatherLink 5.7,2013-02-23 23:10:00,
2013-02-23 16:20:00,32.5,20.1,29.80,WNW,292,6.0,17.0,60,0.00,,,-99.99,48,WeatherLink 5.7,2013-02-23 23:20:00,
2013-02-23 16:30:00,30.9,19.8,29.80,NNW,337,6.0,14.0,63,0.00,,,-99.99,46,WeatherLink 5.7,2013-02-23 23:30:00,
2013-02-23 16:35:00,30.6,20.9,29.82,NNW,337,1.0,4.0,67,0.00,,,-99.99,42,WeatherLink 5.7,2013-02-23 23:35:00,
2013-02-23 16:40:00,30.1,20.8,29.82,NNW,337,1.0,5.0,68,0.00,,,-99.99,45,WeatherLink 5.7,2013-02-23 23:40:00,
2013-02-23 16:50:00,29.7,21.1,29.84,NNW,337,0.0,5.0,70,0.00,,,-99.99,39,WeatherLink 5.7,2013-02-23 23:50:00,
2013-02-23 16:55:00,29.5,20.9,29.84,NW,315,0.0,4.0,70,0.00,,,-99.99,36,WeatherLink 5.7,2013-02-23 23:55:00,
2013-02-23 17:00:00,29.7,21.1,29.84,NW,315,0.0,3.0,70,0.00,,,-99.99,27,WeatherLink 5.7,2013-02-24 00:00:00,
2013-02-23 17:10:00,29.8,21.5,29.85,North,0,0.0,4.0,71,0.00,,,-99.99,18,WeatherLink 5.7,2013-02-24 00:10:00,
2013-02-23 17:15:00,29.5,21.3,29.85,NNW,337,2.0,4.0,71,0.00,,,-99.99,24,WeatherLink 5.7,2013-02-24 00:15:00,
2013-02-23 17:20:00,29.4,21.8,29.86,NW,315,1.0,5.0,73,0.00,,,-99.99,30,WeatherLink 5.7,2013-02-24 00:20:00,
2013-02-23 17:30:00,28.8,22.2,29.86,NNW,337,0.0,3.0,76,0.00,,,-99.99,7,WeatherLink 5.7,2013-02-24 00:30:00,
2013-02-23 17:35:00,28.5,22.2,29.86,NNW,337,1.0,4.0,77,0.00,,,-99.99,0,WeatherLink 5.7,2013-02-24 00:35:00,
2013-02-23 17:40:00,28.4,22.4,29.86,NNW,337,1.0,6.0,78,0.00,,,-99.99,0,WeatherLink 5.7,2013-02-24 00:40:00,
2013-02-23 17:50:00,28.1,22.4,29.86,NNW,337,2.0,6.0,79,0.00,,,-99.99,0,WeatherLink 5.7,2013-02-24 00:50:00,
2013-02-23 18:00:00,27.9,22.2,29.86,NNW,337,1.0,5.0,79,0.00,,,-99.99,0,WeatherLink 5.7,2013-02-24 01:00:00,
2013-02-23 18:10:00,27.9,22.2,29.86,North,0,0.0,3.0,79,0.00,,,-99.99,0,WeatherLink 5.7,2013-02-24 01:10:00,
2013-02-23 18:15:00,27.9,21.9,29.86,NNW,337,2.0,10.0,78,0.00,,,-99.99,0,WeatherLink 5.7,2013-02-24 01:15:00,
2013-02-23 18:20:00,27.9,21.9,29.88,NNW,337,2.0,6.0,78,0.00,,,-99.99,0,WeatherLink 5.7,2013-02-24 01:20:00,
2013-02-23 18:30:00,28.1,21.8,29.88,NNW,337,0.0,3.0,77,0.00,,,-99.99,0,WeatherLink 5.7,2013-02-24 01:30:00,
2013-02-23 18:35:00,28.2,21.9,29.88,NW,315,1.0,5.0,77,0.00,,,-99.99,0,WeatherLink 5.7,2013-02-24 01:35:00,
2013-02-23 18:45:00,28.2,21.9,29.88,NNW,337,1.0,4.0,77,0.00,,,-99.99,0,WeatherLink 5.7,2013-02-24 01:45:00,
2013-02-23 18:50:00,28.4,22.4,29.88,North,-999,0.0,0.0,78,0.00,,,-99.99,0,WeatherLink 5.7,2013-02-24 01:50:00,
2013-02-23 19:00:00,28.1,22.4,29.88,North,-999,0.0,0.0,79,0.00,,,-99.99,0,WeatherLink 5.7,2013-02-24 02:00:00,
2013-02-23 19:10:00,27.9,22.5,29.88,WNW,292,1.0,3.0,80,0.00,,,-99.99,0,WeatherLink 5.7,2013-02-24 02:10:00,
2013-02-23 19:20:00,27.8,22.7,29.87,WNW,292,2.0,4.0,81,0.00,,,-99.99,0,WeatherLink 5.7,2013-02-24 02:20:00,
2013-02-23 19:25:00,27.6,22.5,29.87,NW,315,3.0,5.0,81,0.00,,,-99.99,0,WeatherLink 5.7,2013-02-24 02:25:00,
2013-02-23 19:35:00,27.5,22.7,29.87,West,270,1.0,3.0,82,0.00,,,-99.99,0,WeatherLink 5.7,2013-02-24 02:35:00,
2013-02-23 19:40:00,27.5,23.0,29.87,NW,315,1.0,3.0,83,0.00,,,-99.99,0,WeatherLink 5.7,2013-02-24 02:40:00,
2013-02-23 19:50:00,27.3,22.8,29.88,NW,315,2.0,4.0,83,0.00,,,-99.99,0,WeatherLink 5.7,2013-02-24 02:50:00,
2013-02-23 19:55:00,27.3,22.8,29.88,NW,315,2.0,5.0,83,0.00,,,-99.99,0,WeatherLink 5.7,2013-02-24 02:55:00,
2013-02-23 20:00:00,27.2,22.7,29.88,NW,315,1.0,4.0,83,0.00,,,-99.99,0,WeatherLink 5.7,2013-02-24 03:00:00,
2013-02-23 20:10:00,27.0,22.8,29.88,NW,315,2.0,6.0,84,0.00,,,-99.99,0,WeatherLink 5.7,2013-02-24 03:10:00,
2013-02-23 20:15:00,26.9,22.7,29.88,NW,315,3.0,6.0,84,0.00,,,-99.99,0,WeatherLink 5.7,2013-02-24 03:15:00,
2013-02-23 20:20:00,26.9,23.0,29.84,WNW,292,3.0,6.0,85,0.00,,,-99.99,0,WeatherLink 5.7,2013-02-24 03:20:00,
2013-02-23 20:30:00,26.9,23.0,29.84,WNW,292,2.0,4.0,85,0.00,,,-99.99,0,WeatherLink 5.7,2013-02-24 03:30:00,
2013-02-23 20:35:00,26.7,22.8,29.84,NW,315,2.0,4.0,85,0.00,,,-99.99,0,WeatherLink 5.7,2013-02-24 03:35:00,
2013-02-23 20:45:00,26.6,22.7,29.84,North,-999,0.0,0.0,85,0.00,,,-99.99,0,WeatherLink 5.7,2013-02-24 03:45:00,
2013-02-23 20:50:00,26.6,22.7,29.84,North,-999,0.0,0.0,85,0.00,,,-99.99,0,WeatherLink 5.7,2013-02-24 03:50:00,
2013-02-23 21:00:00,26.7,23.1,29.84,NW,315,1.0,3.0,86,0.00,,,-99.99,0,WeatherLink 5.7,2013-02-24 04:00:00,
2013-02-23 21:10:00,26.7,23.1,29.84,North,-999,0.0,0.0,86,0.00,,,-99.99,0,WeatherLink 5.7,2013-02-24 04:10:00,
2013-02-23 21:20:00,26.9,23.3,29.81,North,-999,0.0,0.0,86,0.00,,,-99.99,0,WeatherLink 5.7,2013-02-24 04:20:00,
2013-02-23 21:25:00,26.9,23.3,29.81,North,-999,0.0,0.0,86,0.00,,,-99.99,0,WeatherLink 5.7,2013-02-24 04:25:00,
2013-02-23 21:35:00,26.9,23.3,29.81,North,-999,0.0,0.0,86,0.00,,,-99.99,0,WeatherLink 5.7,2013-02-24 04:35:00,
2013-02-23 21:40:00,26.9,23.3,29.81,North,-999,0.0,0.0,86,0.00,,,-99.99,0,WeatherLink 5.7,2013-02-24 04:40:00,
2013-02-23 21:50:00,26.9,23.0,29.81,North,-999,0.0,0.0,85,0.00,,,-99.99,0,WeatherLink 5.7,2013-02-24 04:50:00,
2013-02-23 22:00:00,26.9,23.3,29.81,North,-999,0.0,0.0,86,0.00,,,-99.99,0,WeatherLink 5.7,2013-02-24 05:00:00,
2013-02-23 22:10:00,26.9,23.3,29.81,North,-999,0.0,0.0,86,0.00,,,-99.99,0,WeatherLink 5.7,2013-02-24 05:10:00,
2013-02-23 22:15:00,26.9,23.3,29.81,North,-999,0.0,0.0,86,0.00,,,-99.99,0,WeatherLink 5.7,2013-02-24 05:15:00,
2013-02-23 22:20:00,26.9,23.3,29.77,North,-999,0.0,0.0,86,0.00,,,-99.99,0,WeatherLink 5.7,2013-02-24 05:20:00,
2013-02-23 22:25:00,26.9,23.3,29.77,North,-999,0.0,0.0,86,0.00,,,-99.99,0,WeatherLink 5.7,2013-02-24 05:25:00,
2013-02-23 22:30:00,26.9,23.3,29.77,North,-999,0.0,0.0,86,0.00,,,-99.99,0,WeatherLink 5.7,2013-02-24 05:30:00,
2013-02-23 22:35:00,26.9,23.3,29.78,North,-999,0.0,0.0,86,0.00,,,-99.99,0,WeatherLink 5.7,2013-02-24 05:35:00,
2013-02-23 22:40:00,26.9,23.3,29.78,North,-999,0.0,0.0,86,0.00,,,-99.99,0,WeatherLink 5.7,2013-02-24 05:40:00,
2013-02-23 22:50:00,26.9,23.3,29.77,North,-999,0.0,0.0,86,0.00,,,-99.99,0,WeatherLink 5.7,2013-02-24 05:50:00,
2013-02-23 23:00:00,26.9,23.3,29.77,NW,315,1.0,2.0,86,0.00,,,-99.99,0,WeatherLink 5.7,2013-02-24 06:00:00,
2013-02-23 23:10:00,26.7,23.4,29.77,NW,315,0.0,2.0,87,0.00,,,-99.99,0,WeatherLink 5.7,2013-02-24 06:10:00,
2013-02-23 23:15:00,26.7,23.4,29.77,NW,315,2.0,4.0,87,0.00,,,-99.99,0,WeatherLink 5.7,2013-02-24 06:15:00,
2013-02-23 23:20:00,26.6,23.3,29.73,NNW,337,2.0,5.0,87,0.00,,,-99.99,0,WeatherLink 5.7,2013-02-24 06:20:00,
2013-02-23 23:25:00,26.6,23.3,29.73,NW,315,3.0,8.0,87,0.00,,,-99.99,0,WeatherLink 5.7,2013-02-24 06:25:00,
2013-02-23 23:35:00,26.3,23.0,29.75,North,-999,0.0,0.0,87,0.00,,,-99.99,0,WeatherLink 5.7,2013-02-24 06:35:00,
2013-02-23 23:40:00,26.1,22.8,29.75,North,-999,0.0,0.0,87,0.00,,,-99.99,0,WeatherLink 5.7,2013-02-24 06:40:00,
2013-02-23 23:45:00,25.7,22.1,29.75,NNW,337,1.0,4.0,86,0.00,,,-99.99,0,WeatherLink 5.7,2013-02-24 06:45:00,
2013-02-23 23:50:00,25.5,21.9,29.76,North,-999,0.0,0.0,86,0.00,,,-99.99,0,WeatherLink 5.7,2013-02-24 06:50:00,